Decoded Metar for YPTN (KATHERINE/TINDAL in AUSTRALIA) (IATA:N/A) | Meteo·Mobile Aviation Weather
aviador You're here:

YPTN Decoded Metar

KATHERINE/TINDAL in AUSTRALIA
Report Time2019-07-22 16:00:00
UTC Time2019-07-22 16:32:24
Flight Rules vfr VFR
Wind150° at 06 kt
W.Decomp.*RWY 14: 6.0 kt HW 0.7 kt RCW
Visibility9999 m
Phenomena:N/A
Clouds:N/A
Expected CloudBase > 2,800 ft AGL from Temp-Dew spread
CeilingNone
Temp12°C (ISA -2)
Dew Point05°C (63% RH)
AAT8.7°C
QNH1014 hPa
Density Alt174 ft
Elevation358 ft
Report Wrong Elevation
Raw Report
METAR YPTN 221600Z AUTO 15006KT 9999 // NCD 12/05 Q1014=

Extra information for YPTN:More info

Metar Taf Metar & Taf Last 4 Metars F.Rules Stats Wind Profile Meteogram Temp Stats Airport Information Weather charts Add Link Nearby VenuesMetar ALERT Operation Metar Decoded Social comments